sensor_id;sensor_type;location;lat;lon;timestamp;temperature;humidity
11055;DHT22;5580;50.106;8.702;2023-11-19T00:02:07;9.10;99.90
11055;DHT22;5580;50.106;8.702;2023-11-19T00:04:36;9.10;99.90
11055;DHT22;5580;50.106;8.702;2023-11-19T00:07:03;9.10;99.90
11055;DHT22;5580;50.106;8.702;2023-11-19T00:09:30;9.20;99.90
11055;DHT22;5580;50.106;8.702;2023-11-19T00:11:57;9.20;99.90
11055;DHT22;5580;50.106;8.702;2023-11-19T00:14:23;9.20;99.90
11055;DHT22;5580;50.106;8.702;2023-11-19T00:16:50;9.20;99.90
11055;DHT22;5580;50.106;8.702;2023-11-19T00:19:16;9.20;99.90
11055;DHT22;5580;50.106;8.702;2023-11-19T00:21:42;9.20;99.90
11055;DHT22;5580;50.106;8.702;2023-11-19T00:24:08;9.20;99.90
11055;DHT22;5580;50.106;8.702;2023-11-19T00:26:33;9.20;99.90
11055;DHT22;5580;50.106;8.702;2023-11-19T00:28:59;9.20;99.90
11055;DHT22;5580;50.106;8.702;2023-11-19T00:31:25;9.20;99.90
11055;DHT22;5580;50.106;8.702;2023-11-19T00:33:53;9.20;99.90
11055;DHT22;5580;50.106;8.702;2023-11-19T00:36:18;9.20;99.90
11055;DHT22;5580;50.106;8.702;2023-11-19T00:38:44;9.20;99.90
11055;DHT22;5580;50.106;8.702;2023-11-19T00:41:10;9.20;99.90
11055;DHT22;5580;50.106;8.702;2023-11-19T00:43:35;9.20;99.90
11055;DHT22;5580;50.106;8.702;2023-11-19T00:46:01;9.20;99.90
11055;DHT22;5580;50.106;8.702;2023-11-19T00:48:29;9.20;99.90
11055;DHT22;5580;50.106;8.702;2023-11-19T00:50:55;9.20;99.90
11055;DHT22;5580;50.106;8.702;2023-11-19T00:53:20;9.20;99.90
11055;DHT22;5580;50.106;8.702;2023-11-19T00:55:46;9.20;99.90
11055;DHT22;5580;50.106;8.702;2023-11-19T00:58:11;9.20;99.90
11055;DHT22;5580;50.106;8.702;2023-11-19T01:00:37;9.20;99.90
11055;DHT22;5580;50.106;8.702;2023-11-19T01:03:02;9.20;99.90
11055;DHT22;5580;50.106;8.702;2023-11-19T01:05:28;9.20;99.90
11055;DHT22;5580;50.106;8.702;2023-11-19T01:07:54;9.30;99.90
11055;DHT22;5580;50.106;8.702;2023-11-19T01:10:20;9.30;99.90
11055;DHT22;5580;50.106;8.702;2023-11-19T01:12:46;9.30;99.90
11055;DHT22;5580;50.106;8.702;2023-11-19T01:15:11;9.30;99.90
11055;DHT22;5580;50.106;8.702;2023-11-19T01:17:38;9.30;99.90
11055;DHT22;5580;50.106;8.702;2023-11-19T01:20:04;9.30;99.90
11055;DHT22;5580;50.106;8.702;2023-11-19T01:22:32;9.40;99.90
11055;DHT22;5580;50.106;8.702;2023-11-19T01:24:57;9.40;99.90
11055;DHT22;5580;50.106;8.702;2023-11-19T01:27:24;9.40;99.90
11055;DHT22;5580;50.106;8.702;2023-11-19T01:29:49;9.40;99.90
11055;DHT22;5580;50.106;8.702;2023-11-19T01:32:15;9.40;99.90
11055;DHT22;5580;50.106;8.702;2023-11-19T01:34:41;9.40;99.90
11055;DHT22;5580;50.106;8.702;2023-11-19T01:37:06;9.40;99.90
11055;DHT22;5580;50.106;8.702;2023-11-19T01:39:34;9.50;99.90
11055;DHT22;5580;50.106;8.702;2023-11-19T01:42:00;9.50;99.90
11055;DHT22;5580;50.106;8.702;2023-11-19T01:44:25;9.50;99.90
11055;DHT22;5580;50.106;8.702;2023-11-19T01:46:51;9.50;99.90
11055;DHT22;5580;50.106;8.702;2023-11-19T01:49:17;9.50;99.90
11055;DHT22;5580;50.106;8.702;2023-11-19T01:51:44;9.60;99.90
11055;DHT22;5580;50.106;8.702;2023-11-19T01:54:11;9.60;99.90
11055;DHT22;5580;50.106;8.702;2023-11-19T01:56:38;9.60;99.90
11055;DHT22;5580;50.106;8.702;2023-11-19T01:59:10;9.60;99.90
11055;DHT22;5580;50.106;8.702;2023-11-19T02:01:36;9.60;99.90
11055;DHT22;5580;50.106;8.702;2023-11-19T02:04:05;9.60;99.90
11055;DHT22;5580;50.106;8.702;2023-11-19T02:06:33;9.60;99.90
11055;DHT22;5580;50.106;8.702;2023-11-19T02:09:00;9.70;99.90
11055;DHT22;5580;50.106;8.702;2023-11-19T02:11:26;9.70;99.90
11055;DHT22;5580;50.106;8.702;2023-11-19T02:13:55;9.70;99.90
11055;DHT22;5580;50.106;8.702;2023-11-19T02:16:21;9.70;99.90
11055;DHT22;5580;50.106;8.702;2023-11-19T02:18:47;9.70;99.90
11055;DHT22;5580;50.106;8.702;2023-11-19T02:21:14;9.80;99.90
11055;DHT22;5580;50.106;8.702;2023-11-19T02:23:40;9.80;99.90
11055;DHT22;5580;50.106;8.702;2023-11-19T02:29:02;9.90;99.90
11055;DHT22;5580;50.106;8.702;2023-11-19T02:31:28;9.80;99.90
11055;DHT22;5580;50.106;8.702;2023-11-19T02:33:53;9.90;99.90
11055;DHT22;5580;50.106;8.702;2023-11-19T02:36:20;9.90;99.90
11055;DHT22;5580;50.106;8.702;2023-11-19T02:38:46;9.90;99.90
11055;DHT22;5580;50.106;8.702;2023-11-19T02:41:13;9.90;99.90
11055;DHT22;5580;50.106;8.702;2023-11-19T02:43:39;9.90;99.90
11055;DHT22;5580;50.106;8.702;2023-11-19T02:46:05;9.90;99.90
11055;DHT22;5580;50.106;8.702;2023-11-19T02:48:34;9.90;99.90
11055;DHT22;5580;50.106;8.702;2023-11-19T02:51:03;10.00;99.90
11055;DHT22;5580;50.106;8.702;2023-11-19T02:53:32;10.00;99.90
11055;DHT22;5580;50.106;8.702;2023-11-19T02:55:58;10.00;99.90
11055;DHT22;5580;50.106;8.702;2023-11-19T02:58:37;10.00;99.90
11055;DHT22;5580;50.106;8.702;2023-11-19T03:01:04;10.00;99.90
11055;DHT22;5580;50.106;8.702;2023-11-19T03:03:38;10.00;99.90
11055;DHT22;5580;50.106;8.702;2023-11-19T03:06:06;10.00;99.90
11055;DHT22;5580;50.106;8.702;2023-11-19T03:08:34;10.10;99.90
11055;DHT22;5580;50.106;8.702;2023-11-19T03:11:00;10.00;99.90
11055;DHT22;5580;50.106;8.702;2023-11-19T03:13:26;10.00;99.90
11055;DHT22;5580;50.106;8.702;2023-11-19T03:15:52;10.10;99.90
11055;DHT22;5580;50.106;8.702;2023-11-19T03:18:19;10.00;99.90
11055;DHT22;5580;50.106;8.702;2023-11-19T03:20:46;10.00;99.90
11055;DHT22;5580;50.106;8.702;2023-11-19T03:23:11;10.00;99.90
11055;DHT22;5580;50.106;8.702;2023-11-19T03:25:37;10.10;99.90
11055;DHT22;5580;50.106;8.702;2023-11-19T03:28:03;10.10;99.90
11055;DHT22;5580;50.106;8.702;2023-11-19T03:30:30;10.10;99.90
11055;DHT22;5580;50.106;8.702;2023-11-19T03:32:56;10.10;99.90
11055;DHT22;5580;50.106;8.702;2023-11-19T03:35:23;10.10;99.90
11055;DHT22;5580;50.106;8.702;2023-11-19T03:37:50;10.10;99.90
11055;DHT22;5580;50.106;8.702;2023-11-19T03:40:16;10.10;99.90
11055;DHT22;5580;50.106;8.702;2023-11-19T03:42:42;10.10;99.90
11055;DHT22;5580;50.106;8.702;2023-11-19T03:45:09;10.10;99.90
11055;DHT22;5580;50.106;8.702;2023-11-19T03:47:35;10.10;99.90
11055;DHT22;5580;50.106;8.702;2023-11-19T03:50:01;10.10;99.90
11055;DHT22;5580;50.106;8.702;2023-11-19T03:52:26;10.10;99.90
11055;DHT22;5580;50.106;8.702;2023-11-19T03:54:55;10.10;99.90
11055;DHT22;5580;50.106;8.702;2023-11-19T03:57:22;10.10;99.90
11055;DHT22;5580;50.106;8.702;2023-11-19T03:59:48;10.10;99.90
11055;DHT22;5580;50.106;8.702;2023-11-19T04:02:13;10.10;99.90
11055;DHT22;5580;50.106;8.702;2023-11-19T04:04:39;10.10;99.90
11055;DHT22;5580;50.106;8.702;2023-11-19T04:07:05;10.10;99.90
11055;DHT22;5580;50.106;8.702;2023-11-19T04:09:31;10.10;99.90
11055;DHT22;5580;50.106;8.702;2023-11-19T04:11:58;10.10;99.90
11055;DHT22;5580;50.106;8.702;2023-11-19T04:14:24;10.10;99.90
11055;DHT22;5580;50.106;8.702;2023-11-19T04:16:49;10.20;99.90
11055;DHT22;5580;50.106;8.702;2023-11-19T04:19:16;10.10;99.90
11055;DHT22;5580;50.106;8.702;2023-11-19T04:21:42;10.20;99.90
11055;DHT22;5580;50.106;8.702;2023-11-19T04:24:09;10.20;99.90
11055;DHT22;5580;50.106;8.702;2023-11-19T04:26:40;10.20;99.90
11055;DHT22;5580;50.106;8.702;2023-11-19T04:29:16;10.20;99.90
11055;DHT22;5580;50.106;8.702;2023-11-19T04:31:43;10.20;99.90
11055;DHT22;5580;50.106;8.702;2023-11-19T04:34:09;10.20;99.90
11055;DHT22;5580;50.106;8.702;2023-11-19T04:36:36;10.20;99.90
11055;DHT22;5580;50.106;8.702;2023-11-19T04:39:03;10.20;99.90
11055;DHT22;5580;50.106;8.702;2023-11-19T04:41:35;10.30;99.90
11055;DHT22;5580;50.106;8.702;2023-11-19T04:44:01;10.30;99.90
11055;DHT22;5580;50.106;8.702;2023-11-19T04:46:27;10.20;99.90
11055;DHT22;5580;50.106;8.702;2023-11-19T04:48:53;10.20;99.90
11055;DHT22;5580;50.106;8.702;2023-11-19T04:51:19;10.30;99.90
11055;DHT22;5580;50.106;8.702;2023-11-19T04:53:45;10.30;99.90
11055;DHT22;5580;50.106;8.702;2023-11-19T04:56:11;10.30;99.90
11055;DHT22;5580;50.106;8.702;2023-11-19T04:58:37;10.30;99.90
11055;DHT22;5580;50.106;8.702;2023-11-19T05:01:03;10.30;99.90
11055;DHT22;5580;50.106;8.702;2023-11-19T05:03:32;10.30;99.90
11055;DHT22;5580;50.106;8.702;2023-11-19T05:05:58;10.30;99.90
11055;DHT22;5580;50.106;8.702;2023-11-19T05:08:24;10.30;99.90
11055;DHT22;5580;50.106;8.702;2023-11-19T05:10:50;10.30;99.90
11055;DHT22;5580;50.106;8.702;2023-11-19T05:13:15;10.30;99.90
11055;DHT22;5580;50.106;8.702;2023-11-19T05:15:42;10.30;99.90
11055;DHT22;5580;50.106;8.702;2023-11-19T05:18:07;10.30;99.90
11055;DHT22;5580;50.106;8.702;2023-11-19T05:20:34;10.30;99.90
11055;DHT22;5580;50.106;8.702;2023-11-19T05:22:59;10.40;99.90
11055;DHT22;5580;50.106;8.702;2023-11-19T05:25:26;10.30;99.90
11055;DHT22;5580;50.106;8.702;2023-11-19T05:27:52;10.40;99.90
11055;DHT22;5580;50.106;8.702;2023-11-19T05:30:18;10.30;99.90
11055;DHT22;5580;50.106;8.702;2023-11-19T05:32:43;10.40;99.90
11055;DHT22;5580;50.106;8.702;2023-11-19T05:35:09;10.40;99.90
11055;DHT22;5580;50.106;8.702;2023-11-19T05:37:35;10.40;99.90
11055;DHT22;5580;50.106;8.702;2023-11-19T05:40:01;10.40;99.90
11055;DHT22;5580;50.106;8.702;2023-11-19T05:42:28;10.40;99.90
11055;DHT22;5580;50.106;8.702;2023-11-19T05:44:54;10.40;99.90
11055;DHT22;5580;50.106;8.702;2023-11-19T05:47:20;10.40;99.90
11055;DHT22;5580;50.106;8.702;2023-11-19T05:49:45;10.50;99.90
11055;DHT22;5580;50.106;8.702;2023-11-19T05:52:11;10.50;99.90
11055;DHT22;5580;50.106;8.702;2023-11-19T05:54:37;10.50;99.90
11055;DHT22;5580;50.106;8.702;2023-11-19T05:57:06;10.50;99.90
11055;DHT22;5580;50.106;8.702;2023-11-19T05:59:35;10.50;99.90
11055;DHT22;5580;50.106;8.702;2023-11-19T06:02:02;10.50;99.90
11055;DHT22;5580;50.106;8.702;2023-11-19T06:04:28;10.60;99.90
11055;DHT22;5580;50.106;8.702;2023-11-19T06:06:54;10.60;99.90
11055;DHT22;5580;50.106;8.702;2023-11-19T06:09:22;10.60;99.90
11055;DHT22;5580;50.106;8.702;2023-11-19T06:11:51;10.60;99.90
11055;DHT22;5580;50.106;8.702;2023-11-19T06:14:18;10.60;99.90
11055;DHT22;5580;50.106;8.702;2023-11-19T06:16:43;10.60;99.90
11055;DHT22;5580;50.106;8.702;2023-11-19T06:19:09;10.60;99.90
11055;DHT22;5580;50.106;8.702;2023-11-19T06:21:36;10.60;99.90
11055;DHT22;5580;50.106;8.702;2023-11-19T06:24:02;10.70;99.90
11055;DHT22;5580;50.106;8.702;2023-11-19T06:26:28;10.70;99.90
11055;DHT22;5580;50.106;8.702;2023-11-19T06:28:54;10.70;99.90
11055;DHT22;5580;50.106;8.702;2023-11-19T06:31:19;10.70;99.90
11055;DHT22;5580;50.106;8.702;2023-11-19T06:33:46;10.70;99.90
11055;DHT22;5580;50.106;8.702;2023-11-19T06:36:14;10.70;99.90
11055;DHT22;5580;50.106;8.702;2023-11-19T06:38:41;10.70;99.90
11055;DHT22;5580;50.106;8.702;2023-11-19T06:41:08;10.70;99.90
11055;DHT22;5580;50.106;8.702;2023-11-19T06:43:34;10.80;99.90
11055;DHT22;5580;50.106;8.702;2023-11-19T06:46:00;10.80;99.90
11055;DHT22;5580;50.106;8.702;2023-11-19T06:48:27;10.80;99.90
11055;DHT22;5580;50.106;8.702;2023-11-19T06:50:52;10.80;99.90
11055;DHT22;5580;50.106;8.702;2023-11-19T06:53:18;10.80;99.90
11055;DHT22;5580;50.106;8.702;2023-11-19T06:55:43;10.80;99.90
11055;DHT22;5580;50.106;8.702;2023-11-19T06:58:09;10.90;99.90
11055;DHT22;5580;50.106;8.702;2023-11-19T07:00:34;10.80;99.90
11055;DHT22;5580;50.106;8.702;2023-11-19T07:03:01;10.80;99.90
11055;DHT22;5580;50.106;8.702;2023-11-19T07:05:27;10.80;99.90
11055;DHT22;5580;50.106;8.702;2023-11-19T07:07:53;10.90;99.90
11055;DHT22;5580;50.106;8.702;2023-11-19T07:10:20;10.90;99.90
11055;DHT22;5580;50.106;8.702;2023-11-19T07:12:45;10.90;99.90
11055;DHT22;5580;50.106;8.702;2023-11-19T07:15:11;10.90;99.90
11055;DHT22;5580;50.106;8.702;2023-11-19T07:17:39;10.90;99.90
11055;DHT22;5580;50.106;8.702;2023-11-19T07:20:05;10.90;99.90
11055;DHT22;5580;50.106;8.702;2023-11-19T07:22:31;10.90;99.90
11055;DHT22;5580;50.106;8.702;2023-11-19T07:24:57;11.00;99.90
11055;DHT22;5580;50.106;8.702;2023-11-19T07:27:23;11.00;99.90
11055;DHT22;5580;50.106;8.702;2023-11-19T07:29:49;11.00;99.90
11055;DHT22;5580;50.106;8.702;2023-11-19T07:32:15;11.00;99.90
11055;DHT22;5580;50.106;8.702;2023-11-19T07:34:40;11.10;99.90
11055;DHT22;5580;50.106;8.702;2023-11-19T07:37:06;11.10;99.90
11055;DHT22;5580;50.106;8.702;2023-11-19T07:39:32;11.10;99.90
11055;DHT22;5580;50.106;8.702;2023-11-19T07:41:58;11.10;99.90
11055;DHT22;5580;50.106;8.702;2023-11-19T07:44:23;11.10;99.90
11055;DHT22;5580;50.106;8.702;2023-11-19T07:46:50;11.10;99.90
11055;DHT22;5580;50.106;8.702;2023-11-19T07:49:15;11.10;99.90
11055;DHT22;5580;50.106;8.702;2023-11-19T07:51:41;11.10;99.90
11055;DHT22;5580;50.106;8.702;2023-11-19T07:54:07;11.20;99.90
11055;DHT22;5580;50.106;8.702;2023-11-19T07:56:33;11.20;99.90
11055;DHT22;5580;50.106;8.702;2023-11-19T07:59:05;11.20;99.90
11055;DHT22;5580;50.106;8.702;2023-11-19T08:01:31;11.20;99.90
11055;DHT22;5580;50.106;8.702;2023-11-19T08:03:56;11.20;99.90
11055;DHT22;5580;50.106;8.702;2023-11-19T08:06:22;11.20;99.90
11055;DHT22;5580;50.106;8.702;2023-11-19T08:08:48;11.20;99.90
11055;DHT22;5580;50.106;8.702;2023-11-19T08:11:13;11.20;99.90
11055;DHT22;5580;50.106;8.702;2023-11-19T08:13:40;11.30;99.90
11055;DHT22;5580;50.106;8.702;2023-11-19T08:16:06;11.30;99.90
11055;DHT22;5580;50.106;8.702;2023-11-19T08:18:32;11.30;99.90
11055;DHT22;5580;50.106;8.702;2023-11-19T08:20:57;11.40;99.90
11055;DHT22;5580;50.106;8.702;2023-11-19T08:23:24;11.40;99.90
11055;DHT22;5580;50.106;8.702;2023-11-19T08:25:51;11.50;99.90
11055;DHT22;5580;50.106;8.702;2023-11-19T08:28:16;11.50;99.90
11055;DHT22;5580;50.106;8.702;2023-11-19T08:30:42;11.50;99.90
11055;DHT22;5580;50.106;8.702;2023-11-19T08:33:09;11.50;99.90
11055;DHT22;5580;50.106;8.702;2023-11-19T08:35:35;11.50;99.90
11055;DHT22;5580;50.106;8.702;2023-11-19T08:38:00;11.50;99.90
11055;DHT22;5580;50.106;8.702;2023-11-19T08:40:27;11.60;99.90
11055;DHT22;5580;50.106;8.702;2023-11-19T08:42:52;11.60;99.90
11055;DHT22;5580;50.106;8.702;2023-11-19T08:45:18;11.60;99.90
11055;DHT22;5580;50.106;8.702;2023-11-19T08:47:44;11.60;99.90
11055;DHT22;5580;50.106;8.702;2023-11-19T08:50:11;11.60;99.90
11055;DHT22;5580;50.106;8.702;2023-11-19T08:52:36;11.60;99.90
11055;DHT22;5580;50.106;8.702;2023-11-19T08:55:02;11.60;99.90
11055;DHT22;5580;50.106;8.702;2023-11-19T08:57:28;11.60;99.90
11055;DHT22;5580;50.106;8.702;2023-11-19T08:59:54;11.60;99.90
11055;DHT22;5580;50.106;8.702;2023-11-19T09:02:19;11.70;99.90
11055;DHT22;5580;50.106;8.702;2023-11-19T09:04:45;11.70;99.90
11055;DHT22;5580;50.106;8.702;2023-11-19T09:07:11;11.70;99.90
11055;DHT22;5580;50.106;8.702;2023-11-19T09:09:36;11.70;99.90
11055;DHT22;5580;50.106;8.702;2023-11-19T09:12:03;11.80;99.90
11055;DHT22;5580;50.106;8.702;2023-11-19T09:14:29;11.80;99.90
11055;DHT22;5580;50.106;8.702;2023-11-19T09:16:56;11.80;99.90
11055;DHT22;5580;50.106;8.702;2023-11-19T09:19:21;11.70;99.90
11055;DHT22;5580;50.106;8.702;2023-11-19T09:21:47;11.80;99.90
11055;DHT22;5580;50.106;8.702;2023-11-19T09:24:13;11.80;99.90
11055;DHT22;5580;50.106;8.702;2023-11-19T09:26:39;11.80;99.90
11055;DHT22;5580;50.106;8.702;2023-11-19T09:29:09;11.80;99.90
11055;DHT22;5580;50.106;8.702;2023-11-19T09:31:35;11.90;99.90
11055;DHT22;5580;50.106;8.702;2023-11-19T09:34:02;12.00;99.90
11055;DHT22;5580;50.106;8.702;2023-11-19T09:36:28;12.00;99.90
11055;DHT22;5580;50.106;8.702;2023-11-19T09:38:54;12.10;99.90
11055;DHT22;5580;50.106;8.702;2023-11-19T09:41:19;12.10;99.90
11055;DHT22;5580;50.106;8.702;2023-11-19T09:43:45;12.20;99.90
11055;DHT22;5580;50.106;8.702;2023-11-19T09:46:13;12.30;99.90
11055;DHT22;5580;50.106;8.702;2023-11-19T09:48:39;12.30;99.90
11055;DHT22;5580;50.106;8.702;2023-11-19T09:51:09;12.40;99.90
11055;DHT22;5580;50.106;8.702;2023-11-19T09:53:35;12.40;99.90
11055;DHT22;5580;50.106;8.702;2023-11-19T09:56:02;12.50;99.90
11055;DHT22;5580;50.106;8.702;2023-11-19T09:58:29;12.60;99.90
11055;DHT22;5580;50.106;8.702;2023-11-19T10:00:56;12.60;99.90
11055;DHT22;5580;50.106;8.702;2023-11-19T10:03:24;12.70;99.90
11055;DHT22;5580;50.106;8.702;2023-11-19T10:05:50;12.70;99.90
11055;DHT22;5580;50.106;8.702;2023-11-19T10:08:16;12.80;99.90
11055;DHT22;5580;50.106;8.702;2023-11-19T10:10:42;12.80;99.90
11055;DHT22;5580;50.106;8.702;2023-11-19T10:13:08;12.80;99.90
11055;DHT22;5580;50.106;8.702;2023-11-19T10:15:37;12.90;99.90
11055;DHT22;5580;50.106;8.702;2023-11-19T10:18:03;12.90;99.90
11055;DHT22;5580;50.106;8.702;2023-11-19T10:20:40;13.00;99.90
11055;DHT22;5580;50.106;8.702;2023-11-19T10:23:07;13.00;99.90
11055;DHT22;5580;50.106;8.702;2023-11-19T10:25:33;13.00;99.90
11055;DHT22;5580;50.106;8.702;2023-11-19T10:27:59;13.10;99.90
11055;DHT22;5580;50.106;8.702;2023-11-19T10:30:26;13.10;99.90
11055;DHT22;5580;50.106;8.702;2023-11-19T10:33:12;13.20;99.90
11055;DHT22;5580;50.106;8.702;2023-11-19T10:35:54;13.20;99.90
11055;DHT22;5580;50.106;8.702;2023-11-19T10:38:22;13.20;99.90
11055;DHT22;5580;50.106;8.702;2023-11-19T10:40:49;13.20;99.90
11055;DHT22;5580;50.106;8.702;2023-11-19T10:43:16;13.30;99.90
11055;DHT22;5580;50.106;8.702;2023-11-19T10:45:42;13.30;99.90
11055;DHT22;5580;50.106;8.702;2023-11-19T10:48:08;13.40;99.90
11055;DHT22;5580;50.106;8.702;2023-11-19T10:50:36;13.40;99.90
11055;DHT22;5580;50.106;8.702;2023-11-19T10:53:03;13.50;99.90
11055;DHT22;5580;50.106;8.702;2023-11-19T10:55:34;13.50;99.90
11055;DHT22;5580;50.106;8.702;2023-11-19T10:58:07;13.60;99.90
11055;DHT22;5580;50.106;8.702;2023-11-19T11:00:50;13.60;99.90
11055;DHT22;5580;50.106;8.702;2023-11-19T11:03:18;13.70;99.90
11055;DHT22;5580;50.106;8.702;2023-11-19T11:05:48;13.70;99.90
11055;DHT22;5580;50.106;8.702;2023-11-19T11:08:14;13.70;99.90
11055;DHT22;5580;50.106;8.702;2023-11-19T11:10:43;13.70;99.90
11055;DHT22;5580;50.106;8.702;2023-11-19T11:13:10;13.80;99.90
11055;DHT22;5580;50.106;8.702;2023-11-19T11:15:37;13.80;99.90
11055;DHT22;5580;50.106;8.702;2023-11-19T11:18:04;13.80;99.90
11055;DHT22;5580;50.106;8.702;2023-11-19T11:20:34;13.80;99.90
11055;DHT22;5580;50.106;8.702;2023-11-19T11:28:43;13.90;99.90
11055;DHT22;5580;50.106;8.702;2023-11-19T11:31:31;13.90;99.90
11055;DHT22;5580;50.106;8.702;2023-11-19T11:39:22;13.90;99.90
11055;DHT22;5580;50.106;8.702;2023-11-19T11:41:47;14.00;99.90
11055;DHT22;5580;50.106;8.702;2023-11-19T11:45:11;13.90;99.90
11055;DHT22;5580;50.106;8.702;2023-11-19T11:50:19;13.90;99.90
11055;DHT22;5580;50.106;8.702;2023-11-19T11:58:21;14.00;99.90
11055;DHT22;5580;50.106;8.702;2023-11-19T12:00:48;14.00;99.90
11055;DHT22;5580;50.106;8.702;2023-11-19T12:03:14;14.00;99.90
11055;DHT22;5580;50.106;8.702;2023-11-19T12:05:45;14.00;99.90
11055;DHT22;5580;50.106;8.702;2023-11-19T12:08:12;14.00;99.90
11055;DHT22;5580;50.106;8.702;2023-11-19T12:10:47;14.10;99.90
11055;DHT22;5580;50.106;8.702;2023-11-19T12:13:13;14.10;99.90
11055;DHT22;5580;50.106;8.702;2023-11-19T12:18:32;14.10;99.90
11055;DHT22;5580;50.106;8.702;2023-11-19T12:21:01;14.10;99.90
11055;DHT22;5580;50.106;8.702;2023-11-19T12:23:29;14.10;99.90
11055;DHT22;5580;50.106;8.702;2023-11-19T12:25:55;14.10;99.90
11055;DHT22;5580;50.106;8.702;2023-11-19T12:28:20;14.10;99.90
11055;DHT22;5580;50.106;8.702;2023-11-19T12:30:47;14.10;99.90
11055;DHT22;5580;50.106;8.702;2023-11-19T12:33:13;14.10;99.90
11055;DHT22;5580;50.106;8.702;2023-11-19T12:35:43;14.10;99.90
11055;DHT22;5580;50.106;8.702;2023-11-19T12:38:21;14.10;99.90
11055;DHT22;5580;50.106;8.702;2023-11-19T12:41:05;14.10;99.90
11055;DHT22;5580;50.106;8.702;2023-11-19T12:43:31;14.10;99.90
11055;DHT22;5580;50.106;8.702;2023-11-19T12:45:57;14.20;99.90
11055;DHT22;5580;50.106;8.702;2023-11-19T12:48:23;14.10;99.90
11055;DHT22;5580;50.106;8.702;2023-11-19T12:50:58;14.20;99.90
11055;DHT22;5580;50.106;8.702;2023-11-19T12:53:26;14.20;99.90
11055;DHT22;5580;50.106;8.702;2023-11-19T12:55:52;14.20;99.90
11055;DHT22;5580;50.106;8.702;2023-11-19T12:58:32;14.30;99.90
11055;DHT22;5580;50.106;8.702;2023-11-19T13:01:02;14.30;99.90
11055;DHT22;5580;50.106;8.702;2023-11-19T13:03:36;14.30;99.90
11055;DHT22;5580;50.106;8.702;2023-11-19T13:06:07;14.40;99.90
11055;DHT22;5580;50.106;8.702;2023-11-19T13:08:51;14.40;99.90
11055;DHT22;5580;50.106;8.702;2023-11-19T13:11:35;14.50;99.90
11055;DHT22;5580;50.106;8.702;2023-11-19T13:14:02;14.50;99.90
11055;DHT22;5580;50.106;8.702;2023-11-19T13:16:35;14.50;99.90
11055;DHT22;5580;50.106;8.702;2023-11-19T13:19:01;14.50;99.90
11055;DHT22;5580;50.106;8.702;2023-11-19T13:21:27;14.50;99.90
11055;DHT22;5580;50.106;8.702;2023-11-19T13:23:52;14.60;99.90
11055;DHT22;5580;50.106;8.702;2023-11-19T13:26:18;14.60;99.90
11055;DHT22;5580;50.106;8.702;2023-11-19T13:28:43;14.60;99.90
11055;DHT22;5580;50.106;8.702;2023-11-19T13:31:09;14.60;99.90
11055;DHT22;5580;50.106;8.702;2023-11-19T13:33:35;14.60;99.90
11055;DHT22;5580;50.106;8.702;2023-11-19T13:36:02;14.60;99.90
11055;DHT22;5580;50.106;8.702;2023-11-19T13:38:34;14.60;99.90
11055;DHT22;5580;50.106;8.702;2023-11-19T13:41:04;14.60;99.90
11055;DHT22;5580;50.106;8.702;2023-11-19T13:43:34;14.50;99.90
11055;DHT22;5580;50.106;8.702;2023-11-19T13:45:59;14.50;99.90
11055;DHT22;5580;50.106;8.702;2023-11-19T13:48:25;14.50;99.90
11055;DHT22;5580;50.106;8.702;2023-11-19T13:50:52;14.60;99.90
11055;DHT22;5580;50.106;8.702;2023-11-19T13:53:18;14.60;99.90
11055;DHT22;5580;50.106;8.702;2023-11-19T13:55:43;14.60;99.90
11055;DHT22;5580;50.106;8.702;2023-11-19T13:58:10;14.60;99.90
11055;DHT22;5580;50.106;8.702;2023-11-19T14:00:35;14.60;99.90
11055;DHT22;5580;50.106;8.702;2023-11-19T14:03:02;14.60;99.90
11055;DHT22;5580;50.106;8.702;2023-11-19T14:05:27;14.60;99.90
11055;DHT22;5580;50.106;8.702;2023-11-19T14:07:53;14.60;99.90
11055;DHT22;5580;50.106;8.702;2023-11-19T14:10:19;14.60;99.90
11055;DHT22;5580;50.106;8.702;2023-11-19T14:12:45;14.60;99.90
11055;DHT22;5580;50.106;8.702;2023-11-19T14:15:11;14.60;99.90
11055;DHT22;5580;50.106;8.702;2023-11-19T14:17:39;14.50;99.90
11055;DHT22;5580;50.106;8.702;2023-11-19T14:20:05;14.60;99.90
11055;DHT22;5580;50.106;8.702;2023-11-19T14:22:43;14.50;99.90
11055;DHT22;5580;50.106;8.702;2023-11-19T14:25:10;14.50;99.90
11055;DHT22;5580;50.106;8.702;2023-11-19T14:27:42;14.60;99.90
11055;DHT22;5580;50.106;8.702;2023-11-19T14:30:10;14.60;99.90
11055;DHT22;5580;50.106;8.702;2023-11-19T14:32:40;14.60;99.90
11055;DHT22;5580;50.106;8.702;2023-11-19T14:35:07;14.50;99.90
11055;DHT22;5580;50.106;8.702;2023-11-19T14:37:33;14.50;99.90
11055;DHT22;5580;50.106;8.702;2023-11-19T14:39:59;14.50;99.90
11055;DHT22;5580;50.106;8.702;2023-11-19T14:42:26;14.50;99.90
11055;DHT22;5580;50.106;8.702;2023-11-19T14:44:52;14.50;99.90
11055;DHT22;5580;50.106;8.702;2023-11-19T14:47:21;14.50;99.90
11055;DHT22;5580;50.106;8.702;2023-11-19T14:49:46;14.40;99.90
11055;DHT22;5580;50.106;8.702;2023-11-19T14:52:12;14.40;99.90
11055;DHT22;5580;50.106;8.702;2023-11-19T14:54:38;14.40;99.90
11055;DHT22;5580;50.106;8.702;2023-11-19T14:57:05;14.40;99.90
11055;DHT22;5580;50.106;8.702;2023-11-19T14:59:31;14.30;99.90
11055;DHT22;5580;50.106;8.702;2023-11-19T15:01:58;14.30;99.90
11055;DHT22;5580;50.106;8.702;2023-11-19T15:04:26;14.30;99.90
11055;DHT22;5580;50.106;8.702;2023-11-19T15:06:52;14.30;99.90
11055;DHT22;5580;50.106;8.702;2023-11-19T15:09:17;14.30;99.90
11055;DHT22;5580;50.106;8.702;2023-11-19T15:11:46;14.30;99.90
11055;DHT22;5580;50.106;8.702;2023-11-19T15:14:15;14.30;99.90
11055;DHT22;5580;50.106;8.702;2023-11-19T15:16:47;14.30;99.90
11055;DHT22;5580;50.106;8.702;2023-11-19T15:19:13;14.30;99.90
11055;DHT22;5580;50.106;8.702;2023-11-19T15:21:40;14.30;99.90
11055;DHT22;5580;50.106;8.702;2023-11-19T15:24:06;14.30;99.90
11055;DHT22;5580;50.106;8.702;2023-11-19T15:26:36;14.30;99.90
11055;DHT22;5580;50.106;8.702;2023-11-19T15:29:03;14.20;99.90
11055;DHT22;5580;50.106;8.702;2023-11-19T15:31:28;14.20;99.90
11055;DHT22;5580;50.106;8.702;2023-11-19T15:33:55;14.20;99.90
11055;DHT22;5580;50.106;8.702;2023-11-19T15:36:20;14.20;99.90
11055;DHT22;5580;50.106;8.702;2023-11-19T15:38:46;14.20;99.90
11055;DHT22;5580;50.106;8.702;2023-11-19T15:41:12;14.20;99.90
11055;DHT22;5580;50.106;8.702;2023-11-19T15:43:38;14.20;99.90
11055;DHT22;5580;50.106;8.702;2023-11-19T15:46:08;14.20;99.90
11055;DHT22;5580;50.106;8.702;2023-11-19T15:48:33;14.20;99.90
11055;DHT22;5580;50.106;8.702;2023-11-19T15:50:59;14.20;99.90
11055;DHT22;5580;50.106;8.702;2023-11-19T15:53:25;14.20;99.90
11055;DHT22;5580;50.106;8.702;2023-11-19T15:55:51;14.20;99.90
11055;DHT22;5580;50.106;8.702;2023-11-19T15:58:18;14.20;99.90
11055;DHT22;5580;50.106;8.702;2023-11-19T16:00:44;14.20;99.90
11055;DHT22;5580;50.106;8.702;2023-11-19T16:03:12;14.20;99.90
11055;DHT22;5580;50.106;8.702;2023-11-19T16:05:38;14.20;99.90
11055;DHT22;5580;50.106;8.702;2023-11-19T16:08:04;14.20;99.90
11055;DHT22;5580;50.106;8.702;2023-11-19T16:10:29;14.10;99.90
11055;DHT22;5580;50.106;8.702;2023-11-19T16:12:55;14.10;99.90
11055;DHT22;5580;50.106;8.702;2023-11-19T16:15:21;14.10;99.90